Decoded Metar for KESC (ESCANABA in MI, USA) (IATA:ESC) | Meteo·Mobile Aviation Weather
aviador You're here:

KESC Decoded Metar

ESCANABA in MI, USA
Report Time2018-10-18 08:56:00
UTC Time2018-10-18 09:06:29
Flight Rules vfr VFR
Wind270° at 04 kt
W.Decomp.*RWY 27: 4.0 kt HW 0.2 kt RCW
RWY 36: 0.2 kt HW 4 kt LCW
W.Rank270° ranks 9
Current wind is below 270° avg. (7.1)
Visibility9999 m
Phenomena:N/A
Clouds:N/A
Expected CloudBase > 800 ft AGL from Temp-Dew spread
CeilingNone
Temp-4°C (ISA -18)
Dew Point-6°C (86% RH)
AAT-8.2°C
QNH1030 hPa
Density Alt-2,100 ft
Elevation614 ft
Report Wrong Elevation
Raw Report
KESC 180856Z AUTO 27004KT 10SM CLR M04/M06 A3043 RMK AO2 SLP330
T10441061 58003 FZRANO=

Extra information for KESC:More info

Metar Taf Metar & Taf Last 4 Metars F.Rules Stats Wind Profile Meteogram Temp Stats Airport Information Weather charts Add Link Nearby VenuesMetar ALERT Operation Metar Decoded Social comments

AIRNAV info for KESC